Time;durP1;ratioP1;P1;durP2;ratioP2;P2;SDS_P1;SDS_P2;PMS_P1;PMS_P2;Temp;Humidity;BMP_temperature;BMP_pressure;BME280_temperature;BME280_humidity;BME280_pressure;Samples;Min_cycle;Max_cycle;Signal;HPM_P1;HPM_P2
2022/01/29 00:00:38;;;;;;;29.52;10.73;;;;;;;7.10;83.45;102902.53;5027407;28;20023;-54
2022/01/29 00:03:03;;;;;;;39.50;11.88;;;;;;;7.09;83.55;102906.88;5026451;28;20140;-54
2022/01/29 00:05:28;;;;;;;32.80;10.57;;;;;;;7.12;83.21;102906.94;5027207;28;20073;-55
2022/01/29 00:07:54;;;;;;;33.97;10.20;;;;;;;7.12;83.18;102904.31;5026182;28;20116;-52
2022/01/29 00:10:19;;;;;;;28.05;9.93;;;;;;;7.14;82.89;102917.44;5027437;28;20045;-49
2022/01/29 00:12:45;;;;;;;19.33;8.65;;;;;;;7.18;83.02;102899.16;5026263;28;20152;-53
2022/01/29 00:15:10;;;;;;;28.40;10.07;;;;;;;7.17;83.23;102888.66;5028157;28;20554;-50
2022/01/29 00:17:36;;;;;;;26.17;9.10;;;;;;;7.18;83.28;102890.41;5026487;28;20056;-54
2022/01/29 00:20:02;;;;;;;28.83;9.68;;;;;;;7.16;83.35;102879.88;5026334;28;20068;-53
2022/01/29 00:22:27;;;;;;;28.67;8.82;;;;;;;7.18;82.86;102878.19;5026410;28;20160;-57
2022/01/29 00:24:52;;;;;;;26.08;8.95;;;;;;;7.22;82.75;102867.72;5026724;28;20092;-54
2022/01/29 00:27:20;;;;;;;23.90;7.68;;;;;;;7.26;82.36;102875.66;5026271;28;20080;-55
2022/01/29 00:29:46;;;;;;;34.10;8.73;;;;;;;7.21;82.52;102861.59;5026230;28;20025;-54
2022/01/29 00:32:12;;;;;;;26.25;7.43;;;;;;;7.26;82.75;102869.53;5026761;28;20514;-53
2022/01/29 00:34:39;;;;;;;25.48;7.65;;;;;;;7.25;83.02;102878.25;5025975;28;20484;-52
2022/01/29 00:37:05;;;;;;;24.27;7.35;;;;;;;7.25;83.19;102854.66;5027244;28;20371;-52
2022/01/29 00:39:31;;;;;;;29.00;7.82;;;;;;;7.26;83.73;102865.16;5025843;28;20037;-54
2022/01/29 00:41:57;;;;;;;26.80;7.47;;;;;;;7.30;83.32;102855.59;5025260;28;20021;-55
2022/01/29 00:44:22;;;;;;;31.13;7.50;;;;;;;7.22;83.36;102859.88;5035284;28;20029;-55
2022/01/29 00:46:47;;;;;;;28.25;7.65;;;;;;;7.29;83.44;102865.19;5046745;28;20460;-56
2022/01/29 00:49:13;;;;;;;26.05;7.50;;;;;;;7.30;83.34;102861.72;5043909;28;20106;-54
2022/01/29 00:51:39;;;;;;;34.03;8.60;;;;;;;7.29;83.50;102852.06;5045961;28;20068;-54
2022/01/29 00:54:05;;;;;;;29.33;8.38;;;;;;;7.24;84.02;102850.25;5045450;28;20126;-54
2022/01/29 00:56:31;;;;;;;33.83;8.13;;;;;;;7.31;84.00;102852.09;5046303;28;20029;-51
2022/01/29 00:58:56;;;;;;;24.40;7.95;;;;;;;7.29;84.47;102844.19;5029948;28;20552;-56
2022/01/29 01:01:22;;;;;;;24.35;7.75;;;;;;;7.30;84.82;102848.59;5026695;28;20112;-55
2022/01/29 01:03:47;;;;;;;28.15;8.20;;;;;;;7.25;85.09;102842.41;5026203;28;20029;-52
2022/01/29 01:06:13;;;;;;;28.58;8.45;;;;;;;7.16;86.01;102832.69;5026210;28;20049;-53
2022/01/29 01:08:38;;;;;;;36.17;10.43;;;;;;;7.13;86.32;102834.41;5026364;28;20021;-52
2022/01/29 01:11:04;;;;;;;30.75;8.30;;;;;;;7.15;86.43;102827.44;5025937;28;20326;-55
2022/01/29 01:13:31;;;;;;;27.02;8.73;;;;;;;7.00;87.40;102831.63;5024850;28;20021;-55
2022/01/29 01:15:56;;;;;;;28.98;9.00;;;;;;;7.04;87.59;102817.69;5024995;28;20029;-53
2022/01/29 01:18:21;;;;;;;28.38;8.77;;;;;;;7.01;87.81;102817.66;5024374;28;20021;-51
2022/01/29 01:20:47;;;;;;;22.63;7.45;;;;;;;7.00;87.98;102810.66;5026081;28;20159;-51
2022/01/29 01:23:12;;;;;;;25.33;9.02;;;;;;;7.00;87.97;102810.66;5025202;28;20388;-52
2022/01/29 01:25:37;;;;;;;22.70;8.82;;;;;;;6.94;88.46;102805.31;5025938;28;20120;-52
2022/01/29 01:28:03;;;;;;;19.52;7.90;;;;;;;6.98;88.51;102801.88;5026340;28;20171;-57
2022/01/29 01:30:28;;;;;;;23.02;9.40;;;;;;;6.99;88.52;102795.78;5026633;28;20028;-55
2022/01/29 01:32:54;;;;;;;21.50;8.68;;;;;;;6.98;88.50;102794.00;5026657;28;20119;-53
2022/01/29 01:35:25;;;;;;;23.42;8.57;;;;;;;6.98;88.83;102795.78;5023996;28;20036;-52
2022/01/29 01:37:56;;;;;;;18.88;8.70;;;;;;;6.98;88.74;102794.00;5023990;28;20025;-54
2022/01/29 01:40:22;;;;;;;24.35;9.18;;;;;;;7.00;88.84;102789.69;5042437;28;20395;-54
2022/01/29 01:42:48;;;;;;;28.15;9.77;;;;;;;7.03;88.63;102794.06;5044354;28;20056;-55
2022/01/29 01:45:13;;;;;;;24.88;9.05;;;;;;;7.01;88.82;102791.44;5045405;28;20535;-55
2022/01/29 01:47:39;;;;;;;19.85;9.85;;;;;;;7.06;88.74;102792.38;5045275;28;20021;-53
2022/01/29 01:50:06;;;;;;;22.48;10.27;;;;;;;7.05;88.82;102781.88;5044511;28;20070;-54
2022/01/29 01:52:32;;;;;;;19.33;9.75;;;;;;;7.08;88.73;102790.63;5040830;28;20064;-55
2022/01/29 01:54:57;;;;;;;22.15;10.00;;;;;;;7.11;88.77;102783.69;5022136;28;20064;-53
2022/01/29 01:57:22;;;;;;;21.52;10.40;;;;;;;7.07;88.91;102782.75;5023865;28;20404;-53
2022/01/29 01:59:48;;;;;;;32.03;12.30;;;;;;;7.06;88.92;102775.75;5023692;28;20643;-52
2022/01/29 02:02:13;;;;;;;29.52;12.70;;;;;;;7.05;89.09;102768.78;5025418;28;20021;-53
2022/01/29 02:04:38;;;;;;;36.90;12.40;;;;;;;7.12;89.04;102767.97;5025542;28;20037;-54
2022/01/29 02:07:04;;;;;;;35.17;13.50;;;;;;;7.14;88.75;102765.38;5024004;28;20253;-56
2022/01/29 02:09:30;;;;;;;36.55;12.43;;;;;;;7.18;88.71;102767.16;5025488;28;20033;-55
2022/01/29 02:11:58;;;;;;;25.50;12.40;;;;;;;7.19;88.56;102753.19;5022580;28;20045;-49
2022/01/29 02:14:27;;;;;;;44.67;13.75;;;;;;;7.19;88.65;102747.94;5021792;28;20053;-54
2022/01/29 02:16:53;;;;;;;30.27;12.50;;;;;;;7.22;88.53;102745.34;5023874;28;20629;-51
2022/01/29 02:19:18;;;;;;;36.78;11.95;;;;;;;7.20;88.57;102749.72;5022633;28;20075;-54
2022/01/29 02:21:44;;;;;;;27.50;12.05;;;;;;;7.24;88.43;102741.03;5025625;28;20095;-56
2022/01/29 02:24:09;;;;;;;25.67;11.85;;;;;;;7.28;88.28;102750.66;5025178;28;20025;-52
2022/01/29 02:26:34;;;;;;;33.30;11.40;;;;;;;7.32;88.20;102741.09;5024297;28;20095;-53
2022/01/29 02:29:00;;;;;;;30.63;12.23;;;;;;;7.28;88.22;102734.94;5025664;28;20080;-51
2022/01/29 02:31:25;;;;;;;26.67;10.23;;;;;;;7.33;88.09;102738.50;5024852;28;20434;-55
2022/01/29 02:33:51;;;;;;;28.58;10.57;;;;;;;7.38;87.73;102729.78;5029371;28;20033;-55
2022/01/29 02:36:16;;;;;;;28.85;9.98;;;;;;;7.40;87.44;102730.66;5043769;28;20476;-53
2022/01/29 02:38:42;;;;;;;26.00;9.65;;;;;;;7.42;87.33;102723.72;5044057;28;20048;-58
2022/01/29 02:41:07;;;;;;;26.10;9.73;;;;;;;7.48;86.96;102718.53;5043559;28;20021;-54
2022/01/29 02:43:48;;;;;;;28.63;9.30;;;;;;;7.45;87.04;102700.13;5044903;28;20037;-55
2022/01/29 02:48:46;;;;;;;23.92;8.98;;;;;;;7.49;86.72;102701.91;5026478;28;20052;-53
2022/01/29 02:51:12;;;;;;;33.60;9.90;;;;;;;7.52;86.80;102701.94;5025058;28;20073;-55
2022/01/29 02:53:37;;;;;;;22.15;9.15;;;;;;;7.55;86.64;102699.34;5024437;28;20477;-56
2022/01/29 02:56:03;;;;;;;37.75;8.80;;;;;;;7.57;86.44;102691.50;5023455;28;20030;-52
2022/01/29 02:58:28;;;;;;;20.42;8.65;;;;;;;7.56;86.25;102687.97;5024516;28;20026;-52
2022/01/29 03:00:53;;;;;;;27.90;8.75;;;;;;;7.60;86.28;102678.41;5024097;28;20521;-53
2022/01/29 03:03:19;;;;;;;21.92;8.15;;;;;;;7.59;86.14;102685.38;5024554;28;20018;-54
2022/01/29 03:05:44;;;;;;;28.83;8.88;;;;;;;7.68;86.02;102676.69;5025116;28;20084;-55
2022/01/29 03:08:09;;;;;;;38.53;8.23;;;;;;;7.68;86.00;102667.97;5029114;28;20392;-52
2022/01/29 03:10:35;;;;;;;29.30;8.57;;;;;;;7.67;86.54;102679.31;5032477;28;20025;-53
2022/01/29 03:13:00;;;;;;;29.63;8.82;;;;;;;7.70;86.03;102675.00;5048646;28;20052;-52
2022/01/29 03:15:26;;;;;;;32.88;8.32;;;;;;;7.68;86.00;102674.09;5048247;28;20365;-54
2022/01/29 03:17:51;;;;;;;27.80;8.30;;;;;;;7.69;86.00;102668.00;5047931;28;20384;-52
2022/01/29 03:20:16;;;;;;;19.38;7.78;;;;;;;7.77;85.59;102662.78;5033020;28;20059;-53
2022/01/29 03:22:42;;;;;;;22.90;8.45;;;;;;;7.79;85.73;102654.91;5027873;28;20053;-53
2022/01/29 03:25:07;;;;;;;20.83;8.05;;;;;;;7.75;85.61;102654.03;5026128;28;20014;-51
2022/01/29 03:27:32;;;;;;;30.92;7.65;;;;;;;7.73;85.84;102650.50;5028405;28;20130;-53
2022/01/29 03:29:58;;;;;;;23.45;7.97;;;;;;;7.80;85.68;102662.81;5027834;28;20203;-53
2022/01/29 03:32:23;;;;;;;20.58;7.70;;;;;;;7.83;85.74;102646.22;5027763;28;20071;-56
2022/01/29 03:34:48;;;;;;;25.83;7.30;;;;;;;7.82;85.93;102647.94;5026467;28;20661;-54
2022/01/29 03:37:14;;;;;;;20.65;7.13;;;;;;;7.80;85.92;102641.81;5026980;28;20036;-51
2022/01/29 03:39:42;;;;;;;26.30;7.75;;;;;;;7.86;85.66;102641.00;5027765;28;20029;-56
2022/01/29 03:42:09;;;;;;;16.45;7.32;;;;;;;7.81;85.94;102651.47;5027907;28;20055;-54
2022/01/29 03:44:34;;;;;;;18.67;7.10;;;;;;;7.80;85.94;102641.81;5028124;28;20033;-51
2022/01/29 03:47:00;;;;;;;21.20;7.07;;;;;;;7.89;85.55;102637.50;5026464;28;20289;-54
2022/01/29 03:49:25;;;;;;;28.27;6.78;;;;;;;7.90;85.49;102645.38;5027153;28;20022;-55
2022/01/29 03:51:51;;;;;;;28.80;7.72;;;;;;;7.90;85.56;102647.13;5026258;28;20029;-53
2022/01/29 03:54:16;;;;;;;18.25;7.13;;;;;;;7.91;85.59;102641.00;5027181;28;20113;-53
2022/01/29 03:56:41;;;;;;;27.90;7.38;;;;;;;7.92;85.56;102630.50;5027936;28;20022;-59
2022/01/29 03:59:07;;;;;;;26.85;7.45;;;;;;;7.88;85.85;102630.47;5027725;28;20464;-51
2022/01/29 04:01:32;;;;;;;25.45;7.30;;;;;;;7.92;85.64;102624.41;5027404;28;20040;-51
2022/01/29 04:03:58;;;;;;;17.98;6.03;;;;;;;7.93;85.47;102626.16;5026350;28;20021;-53
2022/01/29 04:06:24;;;;;;;15.55;6.22;;;;;;;7.99;85.20;102626.19;5026325;28;20071;-56
2022/01/29 04:08:49;;;;;;;18.27;5.85;;;;;;;8.03;85.22;102624.44;5025379;28;20361;-53
2022/01/29 04:11:15;;;;;;;18.75;6.05;;;;;;;8.02;85.33;102634.09;5027262;28;20021;-54
2022/01/29 04:13:44;;;;;;;19.50;6.05;;;;;;;8.07;84.96;102613.97;5027746;28;20060;-54
2022/01/29 04:16:11;;;;;;;18.10;5.93;;;;;;;8.08;84.89;102621.00;5033439;28;20033;-55
2022/01/29 04:18:36;;;;;;;16.70;6.13;;;;;;;8.12;84.97;102628.88;5043620;28;20009;-54
2022/01/29 04:21:02;;;;;;;22.05;6.00;;;;;;;8.18;84.42;102626.28;5045920;28;20596;-53
2022/01/29 04:23:28;;;;;;;20.85;6.05;;;;;;;8.13;84.55;102621.00;5044069;28;20024;-54
2022/01/29 04:25:53;;;;;;;26.75;6.75;;;;;;;8.11;85.09;102619.22;5046016;28;20025;-53
2022/01/29 04:28:22;;;;;;;20.00;6.07;;;;;;;8.13;84.72;102613.13;5047614;28;20029;-54
2022/01/29 04:30:53;;;;;;;24.05;6.40;;;;;;;8.14;84.62;102616.63;5032040;28;20021;-51
2022/01/29 04:35:45;;;;;;;24.15;6.00;;;;;;;8.15;84.61;102595.63;5031347;28;20029;-52
2022/01/29 04:38:10;;;;;;;26.90;7.05;;;;;;;8.14;84.97;102577.25;5046829;28;20032;-51
2022/01/29 04:40:36;;;;;;;18.38;5.72;;;;;;;8.16;84.86;102586.88;5045507;28;20016;-52
2022/01/29 04:43:03;;;;;;;33.17;7.57;;;;;;;8.18;84.81;102590.41;5044678;28;20068;-57
2022/01/29 04:45:28;;;;;;;16.65;5.90;;;;;;;8.12;84.55;102587.72;5041284;28;20021;-53
2022/01/29 04:47:54;;;;;;;18.67;5.95;;;;;;;8.16;84.88;102586.88;5026904;28;20496;-56
2022/01/29 04:50:19;;;;;;;14.45;5.43;;;;;;;8.19;84.58;102591.28;5024472;28;20033;-54
2022/01/29 04:52:44;;;;;;;18.58;5.95;;;;;;;8.16;84.52;102578.13;5026844;28;20103;-54
2022/01/29 04:55:10;;;;;;;17.10;6.28;;;;;;;8.14;84.60;102579.88;5025316;28;20528;-55
2022/01/29 04:57:37;;;;;;;18.05;6.65;;;;;;;8.08;84.59;102578.97;5028990;28;20875;-55
2022/01/29 05:00:06;;;;;;;17.02;5.80;;;;;;;8.08;84.78;102592.13;5026982;28;20111;-53
2022/01/29 05:02:31;;;;;;;18.60;6.87;;;;;;;7.98;85.12;102569.31;5026485;28;20483;-54
2022/01/29 05:04:56;;;;;;;12.48;5.32;;;;;;;8.01;84.71;102579.81;5026897;28;20292;-53
2022/01/29 05:07:22;;;;;;;15.63;5.45;;;;;;;8.00;84.92;102572.81;5026626;28;20025;-54
2022/01/29 05:09:47;;;;;;;14.13;5.82;;;;;;;7.97;85.26;102591.16;5025478;28;20034;-55
2022/01/29 05:12:19;;;;;;;20.60;5.93;;;;;;;8.00;85.08;102587.69;5026635;28;20033;-53
2022/01/29 05:15:04;;;;;;;17.48;5.40;;;;;;;8.11;84.82;102569.34;5026655;28;20025;-53
2022/01/29 05:28:44;;;;;;;16.75;4.90;;;;;;;8.23;84.57;102577.28;5027939;28;20052;-56
2022/01/29 05:31:10;;;;;;;15.40;4.38;;;;;;;8.25;84.46;102578.16;5026798;28;20503;-57
2022/01/29 05:33:35;;;;;;;15.73;6.05;;;;;;;8.26;84.38;102573.78;5027784;28;20061;-53
2022/01/29 05:36:00;;;;;;;13.63;4.90;;;;;;;8.22;84.67;102579.03;5028178;28;20131;-59
2022/01/29 05:38:27;;;;;;;17.55;5.30;;;;;;;8.20;84.77;102578.16;5027399;28;20479;-54
2022/01/29 05:40:55;;;;;;;23.08;5.47;;;;;;;8.21;84.60;102577.28;5025245;28;20033;-56
2022/01/29 05:43:21;;;;;;;15.33;4.83;;;;;;;8.19;84.80;102576.38;5025631;28;20030;-51
2022/01/29 05:45:47;;;;;;;16.42;5.18;;;;;;;8.25;84.65;102575.53;5026767;28;20276;-55
2022/01/29 05:48:12;;;;;;;16.05;5.00;;;;;;;8.19;84.85;102565.88;5026389;28;20112;-52
2022/01/29 05:50:39;;;;;;;19.10;6.03;;;;;;;8.19;84.63;102573.75;5026194;28;20550;-50
2022/01/29 05:53:04;;;;;;;24.83;5.55;;;;;;;8.23;84.75;102579.91;5025889;28;20033;-53
2022/01/29 05:55:30;;;;;;;23.23;5.88;;;;;;;8.20;84.94;102582.53;5023751;28;20095;-53
2022/01/29 05:57:55;;;;;;;17.88;4.72;;;;;;;8.26;84.60;102577.31;5025771;28;20167;-54
2022/01/29 06:00:20;;;;;;;22.98;5.50;;;;;;;8.25;84.81;102572.91;5026585;28;20028;-52
2022/01/29 06:02:46;;;;;;;20.73;5.10;;;;;;;8.24;84.55;102565.91;5025527;28;20029;-55
2022/01/29 06:05:11;;;;;;;17.33;5.35;;;;;;;8.22;84.68;102565.91;5026390;28;20096;-54
2022/01/29 06:07:36;;;;;;;15.93;5.07;;;;;;;8.25;84.53;102556.28;5026357;28;20184;-56
2022/01/29 06:10:02;;;;;;;19.30;5.50;;;;;;;8.25;84.56;102551.88;5024739;28;20010;-55
2022/01/29 06:12:27;;;;;;;14.80;4.78;;;;;;;8.29;84.52;102551.06;5019102;28;20103;-52
2022/01/29 06:14:53;;;;;;;20.35;6.30;;;;;;;8.29;84.32;102547.53;5027006;28;20029;-56
2022/01/29 06:17:18;;;;;;;20.88;5.50;;;;;;;8.26;84.70;102553.66;5026662;28;20032;-59
2022/01/29 06:19:43;;;;;;;16.95;5.30;;;;;;;8.31;84.46;102549.28;5026585;28;20028;-55
2022/01/29 06:22:12;;;;;;;19.35;4.90;;;;;;;8.39;84.20;102543.19;5026720;28;20029;-56
2022/01/29 06:24:38;;;;;;;18.08;4.70;;;;;;;8.43;83.96;102532.69;5025886;28;20032;-60
2022/01/29 06:27:03;;;;;;;14.95;4.55;;;;;;;8.46;84.11;102527.44;5026910;28;21292;-54
2022/01/29 06:29:28;;;;;;;16.27;4.75;;;;;;;8.54;83.94;102527.50;5026661;28;20404;-53
2022/01/29 06:31:54;;;;;;;11.27;4.07;;;;;;;8.50;83.74;102533.59;5027030;28;20117;-57
2022/01/29 06:34:19;;;;;;;18.40;4.65;;;;;;;8.53;83.87;102532.72;5025512;28;20040;-52
2022/01/29 06:36:44;;;;;;;11.13;4.30;;;;;;;8.55;83.68;102510.00;5025719;28;20359;-51
2022/01/29 06:39:10;;;;;;;20.42;4.15;;;;;;;8.51;84.02;102516.94;5025696;28;20029;-53
2022/01/29 06:41:35;;;;;;;15.95;4.28;;;;;;;8.52;83.94;102518.69;5027635;28;20021;-55
2022/01/29 06:44:00;;;;;;;14.65;3.97;;;;;;;8.56;83.66;102506.47;5030236;28;20167;-54
2022/01/29 06:46:26;;;;;;;20.40;4.45;;;;;;;8.56;83.53;102511.75;5030160;28;20041;-53
2022/01/29 06:48:52;;;;;;;11.52;3.50;;;;;;;8.57;83.80;102510.84;5029242;28;20029;-56
2022/01/29 06:51:18;;;;;;;17.80;3.80;;;;;;;8.57;83.64;102511.75;5029427;28;20025;-55
2022/01/29 06:53:43;;;;;;;9.43;3.53;;;;;;;8.58;83.73;102505.59;5029148;28;20026;-55
2022/01/29 06:56:08;;;;;;;11.75;3.63;;;;;;;8.57;83.77;102506.47;5028678;28;20084;-55
2022/01/29 06:58:34;;;;;;;15.38;3.88;;;;;;;8.59;83.63;102507.38;5028258;28;20104;-53
2022/01/29 07:00:59;;;;;;;13.68;3.65;;;;;;;8.64;83.52;102503.88;5027173;28;20041;-54
2022/01/29 07:03:25;;;;;;;15.98;3.60;;;;;;;8.63;83.77;102500.34;5028019;28;20075;-52
2022/01/29 07:05:50;;;;;;;21.85;4.38;;;;;;;8.61;83.88;102503.88;5028152;28;20045;-53
2022/01/29 07:08:15;;;;;;;24.65;4.10;;;;;;;8.62;83.83;102500.34;5028930;28;20490;-53
2022/01/29 07:10:41;;;;;;;11.60;3.67;;;;;;;8.55;84.22;102488.97;5028976;28;20039;-50
2022/01/29 07:13:06;;;;;;;22.52;3.92;;;;;;;8.59;84.24;102488.09;5027911;28;20479;-55
2022/01/29 07:15:32;;;;;;;23.33;4.25;;;;;;;8.62;84.04;102489.84;5029279;28;20597;-55
2022/01/29 07:17:57;;;;;;;18.40;3.38;;;;;;;8.64;83.91;102504.72;5026765;28;20057;-56
2022/01/29 07:20:22;;;;;;;12.70;3.17;;;;;;;8.61;84.36;102485.47;5028783;28;20103;-54
2022/01/29 07:22:48;;;;;;;13.70;3.63;;;;;;;8.59;84.49;102496.88;5028604;28;20122;-51
2022/01/29 07:25:14;;;;;;;12.95;3.20;;;;;;;8.58;84.66;102502.13;5028117;28;20071;-53
2022/01/29 07:27:39;;;;;;;10.18;3.47;;;;;;;8.58;85.06;102492.47;5027601;28;20025;-54
2022/01/29 07:30:06;;;;;;;19.05;3.80;;;;;;;8.59;84.75;102481.09;5028628;28;20536;-54
2022/01/29 07:32:31;;;;;;;13.25;3.72;;;;;;;8.57;85.19;102474.94;5027370;28;20038;-56
2022/01/29 07:34:57;;;;;;;15.35;3.75;;;;;;;8.57;85.22;102471.44;5028137;28;20084;-55
2022/01/29 07:37:22;;;;;;;14.77;3.33;;;;;;;8.57;85.64;102474.94;5027556;28;20029;-54
2022/01/29 07:39:47;;;;;;;11.80;3.70;;;;;;;8.57;85.75;102477.59;5026907;28;20120;-55
2022/01/29 07:42:13;;;;;;;17.08;4.25;;;;;;;8.54;85.75;102477.56;5028680;28;20083;-55
2022/01/29 07:44:38;;;;;;;13.43;3.90;;;;;;;8.50;85.70;102475.78;5023599;28;20033;-55
2022/01/29 07:47:04;;;;;;;18.08;4.10;;;;;;;8.56;85.58;102474.94;5017540;28;20033;-54
2022/01/29 07:49:29;;;;;;;21.23;4.13;;;;;;;8.59;85.31;102474.97;5019659;28;20373;-54
2022/01/29 07:51:54;;;;;;;17.33;4.03;;;;;;;8.64;84.99;102467.09;5015098;28;20026;-54
2022/01/29 07:54:20;;;;;;;23.35;4.90;;;;;;;8.63;85.17;102457.41;5014999;28;20033;-55
2022/01/29 07:56:45;;;;;;;22.27;4.18;;;;;;;8.67;84.89;102453.94;5009700;28;20018;-57
2022/01/29 07:59:10;;;;;;;16.40;4.32;;;;;;;8.66;84.77;102454.78;5015121;28;20029;-53
2022/01/29 08:01:36;;;;;;;21.20;4.38;;;;;;;8.63;84.92;102453.06;5017101;28;20465;-57
2022/01/29 08:04:01;;;;;;;16.92;3.92;;;;;;;8.69;84.74;102446.91;5016583;28;20017;-56
2022/01/29 08:06:29;;;;;;;17.67;3.80;;;;;;;8.72;84.57;102453.06;5016309;28;20046;-58
2022/01/29 08:08:54;;;;;;;22.40;3.83;;;;;;;8.74;84.19;102437.28;5016261;28;20030;-58
2022/01/29 08:11:20;;;;;;;16.08;3.47;;;;;;;8.80;84.36;102439.94;5016589;28;20523;-60
2022/01/29 08:13:48;;;;;;;18.52;3.95;;;;;;;8.83;83.78;102442.56;5016259;28;20064;-60
2022/01/29 08:16:14;;;;;;;20.20;4.25;;;;;;;8.79;83.96;102438.16;5025458;28;20017;-61
2022/01/29 08:18:42;;;;;;;16.55;3.67;;;;;;;8.83;83.77;102432.03;5028010;28;20053;-56
2022/01/29 08:21:07;;;;;;;15.48;3.40;;;;;;;8.90;83.69;102434.63;5027818;28;20476;-55
2022/01/29 08:23:33;;;;;;;14.55;3.70;;;;;;;8.87;83.52;102434.63;5026703;28;20018;-59
2022/01/29 08:25:58;;;;;;;16.35;3.42;;;;;;;8.89;83.61;102435.53;5024533;28;20132;-57
2022/01/29 08:28:26;;;;;;;20.42;3.70;;;;;;;8.91;83.58;102439.03;5026931;28;20021;-56
2022/01/29 08:30:52;;;;;;;23.63;4.15;;;;;;;8.87;83.56;102443.41;5026759;28;20511;-56
2022/01/29 08:33:18;;;;;;;17.13;3.40;;;;;;;8.91;83.48;102432.00;5026001;28;20053;-57
2022/01/29 08:35:45;;;;;;;18.90;4.40;;;;;;;8.93;83.56;102445.16;5023936;28;20083;-59
2022/01/29 08:38:10;;;;;;;16.38;3.08;;;;;;;9.01;83.27;102430.25;5020599;28;20161;-58
2022/01/29 08:40:36;;;;;;;18.88;3.13;;;;;;;9.03;83.02;102431.13;5026166;28;20037;-55
2022/01/29 08:43:01;;;;;;;13.98;3.63;;;;;;;9.00;83.29;102441.63;5021801;28;20074;-58
2022/01/29 08:45:26;;;;;;;12.60;3.10;;;;;;;9.04;83.01;102425.00;5026911;28;20025;-58
2022/01/29 08:47:52;;;;;;;15.43;2.80;;;;;;;9.08;82.87;102421.47;5026458;28;20516;-53
2022/01/29 08:50:17;;;;;;;17.83;2.58;;;;;;;9.08;82.70;102413.59;5026870;28;20017;-52
2022/01/29 08:52:42;;;;;;;17.63;2.60;;;;;;;9.16;82.65;102410.06;5026636;28;20030;-59
2022/01/29 08:55:09;;;;;;;15.38;2.42;;;;;;;9.13;82.53;102402.16;5025431;28;20064;-54
2022/01/29 08:57:35;;;;;;;13.30;2.30;;;;;;;9.13;82.53;102418.84;5026535;28;20065;-55
2022/01/29 09:00:01;;;;;;;17.50;2.17;;;;;;;9.14;82.32;102403.91;5026032;28;20049;-59
2022/01/29 09:02:27;;;;;;;10.68;2.55;;;;;;;9.13;82.48;102408.31;5026397;28;20029;-54
2022/01/29 09:04:54;;;;;;;13.30;2.85;;;;;;;9.15;82.26;102400.44;5025420;28;20053;-57
2022/01/29 09:07:20;;;;;;;14.65;3.25;;;;;;;9.16;82.05;102395.16;5025634;28;20029;-56
2022/01/29 09:09:46;;;;;;;17.23;2.45;;;;;;;9.16;81.99;102389.91;5023827;28;20049;-55
2022/01/29 09:12:12;;;;;;;15.80;3.42;;;;;;;9.15;82.00;102389.91;5026025;28;20739;-60
2022/01/29 09:14:38;;;;;;;9.98;2.22;;;;;;;9.18;81.38;102403.06;5025730;28;20068;-53
2022/01/29 09:17:03;;;;;;;14.50;2.17;;;;;;;9.25;81.45;102401.25;4995616;28;20057;-54
2022/01/29 09:19:28;;;;;;;8.98;2.38;;;;;;;9.34;81.10;102388.09;4992030;28;20033;-54
2022/01/29 09:21:54;;;;;;;11.77;2.40;;;;;;;9.41;80.56;102392.44;5003508;28;20025;-56
2022/01/29 09:24:19;;;;;;;16.10;3.90;;;;;;;9.48;80.51;102399.44;5002283;28;20021;-53
2022/01/29 09:26:45;;;;;;;15.85;2.67;;;;;;;9.54;80.12;102390.63;5002908;28;20022;-54
2022/01/29 09:29:10;;;;;;;15.10;2.38;;;;;;;9.57;80.16;102377.44;5003889;28;20017;-56
2022/01/29 09:31:35;;;;;;;16.23;2.55;;;;;;;9.67;79.89;102409.00;5010398;28;20452;-52
2022/01/29 09:34:01;;;;;;;13.63;2.70;;;;;;;9.69;79.38;102383.56;5002882;28;20055;-56
2022/01/29 09:36:26;;;;;;;13.82;2.70;;;;;;;9.60;79.42;102393.22;5002654;28;20064;-56
2022/01/29 09:38:51;;;;;;;8.88;2.50;;;;;;;9.63;79.82;102387.06;5001890;28;20033;-56
2022/01/29 09:41:18;;;;;;;25.67;2.85;;;;;;;9.58;79.86;102384.47;5009313;28;20033;-57
2022/01/29 09:43:46;;;;;;;11.25;2.28;;;;;;;9.54;80.04;102366.94;5021218;28;20033;-57
2022/01/29 09:46:12;;;;;;;21.02;2.72;;;;;;;9.56;79.99;102370.44;5018700;28;20025;-55
2022/01/29 09:48:38;;;;;;;17.45;2.30;;;;;;;9.64;79.45;102364.25;5003371;28;20472;-55
2022/01/29 09:51:05;;;;;;;15.65;3.13;;;;;;;9.66;79.66;102355.47;5002353;28;20274;-55
2022/01/29 09:53:30;;;;;;;14.43;2.65;;;;;;;9.61;79.36;102352.00;5001313;28;20057;-56
2022/01/29 09:55:56;;;;;;;12.18;2.55;;;;;;;9.71;79.32;102365.97;5002764;28;20037;-59
2022/01/29 09:58:21;;;;;;;15.85;2.83;;;;;;;9.91;78.85;102346.56;5002460;28;20021;-58
2022/01/29 10:00:47;;;;;;;16.45;2.92;;;;;;;9.96;78.37;102334.22;5002814;28;20054;-57
2022/01/29 10:03:16;;;;;;;12.73;2.50;;;;;;;9.94;78.45;102349.16;4999335;28;20040;-60
2022/01/29 10:05:44;;;;;;;13.13;3.03;;;;;;;9.99;78.34;102339.47;5000279;28;20337;-56
2022/01/29 10:08:10;;;;;;;14.63;2.95;;;;;;;10.06;78.17;102340.31;5001560;28;20071;-59
2022/01/29 10:10:48;;;;;;;11.95;2.20;;;;;;;10.11;78.19;102342.00;5000703;28;20025;-57
2022/01/29 10:13:36;;;;;;;17.30;3.00;;;;;;;10.11;77.95;102343.75;5002856;28;20034;-57
2022/01/29 10:16:13;;;;;;;11.35;1.98;;;;;;;10.11;77.55;102342.00;4982102;28;20064;-58
2022/01/29 10:18:40;;;;;;;11.48;2.35;;;;;;;10.18;77.34;102345.47;4994174;28;20539;-59
2022/01/29 10:21:08;;;;;;;19.25;2.53;;;;;;;10.16;77.44;102347.25;5001457;28;20035;-60
2022/01/29 10:23:34;;;;;;;8.95;1.88;;;;;;;10.29;76.72;102360.34;5000411;28;20175;-59
2022/01/29 10:26:00;;;;;;;9.73;2.15;;;;;;;10.35;76.28;102362.88;5002163;28;20120;-58
2022/01/29 10:28:26;;;;;;;10.80;1.90;;;;;;;10.47;75.19;102370.72;5000816;28;20526;-58
2022/01/29 10:30:56;;;;;;;7.32;2.05;;;;;;;10.58;74.94;102359.22;4998844;28;20577;-59
2022/01/29 10:33:27;;;;;;;10.90;2.05;;;;;;;10.65;74.58;102341.59;5000481;28;20032;-56
2022/01/29 10:35:55;;;;;;;7.38;1.92;;;;;;;10.74;74.14;102341.47;4983328;28;20029;-57
2022/01/29 10:38:26;;;;;;;7.38;1.40;;;;;;;10.84;74.06;102332.56;4981140;28;20498;-56
2022/01/29 10:41:16;;;;;;;4.50;1.63;;;;;;;10.92;73.83;102335.13;5000643;28;20033;-60
2022/01/29 10:44:10;;;;;;;8.57;1.85;;;;;;;10.95;73.70;102318.41;5002487;28;20480;-59
2022/01/29 10:46:36;;;;;;;10.02;1.92;;;;;;;11.09;73.79;102321.75;5001370;28;20040;-59
2022/01/29 10:49:03;;;;;;;6.22;1.85;;;;;;;11.13;72.87;102343.69;5000319;28;20409;-59
2022/01/29 10:51:28;;;;;;;10.10;1.75;;;;;;;11.14;73.33;102344.56;5002265;28;20087;-57
2022/01/29 10:53:54;;;;;;;14.30;2.83;;;;;;;11.02;73.59;102341.19;5001125;28;20025;-58
2022/01/29 10:56:20;;;;;;;6.00;1.58;;;;;;;10.92;74.57;102327.22;5002250;28;20049;-57
2022/01/29 10:58:47;;;;;;;9.63;2.55;;;;;;;10.97;74.34;102312.22;5013352;28;20029;-57
2022/01/29 11:01:24;;;;;;;19.10;2.65;;;;;;;10.95;73.76;102321.91;5015383;28;20059;-60
2022/01/29 11:03:55;;;;;;;13.98;2.00;;;;;;;10.90;74.08;102309.69;4999430;28;20037;-59
2022/01/29 11:06:27;;;;;;;9.05;1.65;;;;;;;10.77;74.40;102275.53;5001223;28;20045;-55
2022/01/29 11:08:52;;;;;;;10.40;2.08;;;;;;;10.77;73.94;102274.69;5006407;28;20021;-54
2022/01/29 11:11:18;;;;;;;9.18;2.15;;;;;;;10.69;74.22;102285.31;5022240;28;20095;-51
2022/01/29 11:13:46;;;;;;;5.63;1.63;;;;;;;10.62;75.04;102292.38;5022331;28;20179;-53
2022/01/29 11:16:12;;;;;;;13.18;2.03;;;;;;;10.65;74.77;102283.59;5022143;28;20120;-55
2022/01/29 11:18:38;;;;;;;14.30;2.63;;;;;;;10.60;74.64;102275.75;5020556;28;20030;-53
2022/01/29 11:21:03;;;;;;;10.18;1.92;;;;;;;10.54;75.03;102289.84;5023807;28;20491;-57
2022/01/29 11:23:30;;;;;;;12.13;2.10;;;;;;;10.50;75.10;102277.59;5021926;28;20113;-55
2022/01/29 11:25:57;;;;;;;8.27;1.70;;;;;;;10.59;75.08;102271.34;5022604;28;20452;-53
2022/01/29 11:28:26;;;;;;;8.90;1.70;;;;;;;10.69;74.55;102285.31;5025913;28;20052;-52
2022/01/29 11:31:10;;;;;;;9.77;2.10;;;;;;;10.83;74.86;102267.56;5025726;28;20022;-55
2022/01/29 11:34:02;;;;;;;6.85;2.00;;;;;;;10.86;74.35;102264.00;5024471;28;20464;-61
2022/01/29 11:36:49;;;;;;;12.80;3.22;;;;;;;10.72;74.32;102299.31;5025037;28;20029;-55